Flight Track Log - Related Links

Times and Time Zones

All times are in EDT time to prevent confusion due to time zone crossing. See the N610DA flight status page for this flight to view local times or setup timezone preferences in your user account.

Time Position Orientation Groundspeed Altitude Reporting Facility
EDT Latitude Longitude Course Direction KTS MPH feet Rate Location/Type
Wed 12:38:42 PM 28.7833 -81.2167 103° East 112 129 600  Level Orlando TRACON
Wed 12:39:19 PM 28.7833 -81.2000 90° East 103 119 1,100 742 Climbing Orlando TRACON
Wed 12:40:19 PM 28.8167 -81.1833 24° Northeast 107 123 1,800 714 Climbing Orlando TRACON
Wed 12:41:25 PM 28.8167 -81.2167 270° West 108 124 2,600 714 Climbing Orlando TRACON
Wed 12:42:25 PM 28.8167 -81.2500 270° West 105 121 3,300 700 Climbing Orlando TRACON
Wed 12:43:25 PM 28.8167 -81.2833 270° West 99 114 4,000 397 Climbing Orlando TRACON
Wed 12:44:00 PM 28.7770 -81.2349 103° East  Level Estimated
Wed 12:44:26 PM 28.8167 -81.3167 270° West 125 144 4,100  Level Orlando TRACON
Wed 12:45:32 PM 28.8167 -81.3500 270° West 128 147 4,100  Level Orlando TRACON
Wed 12:46:32 PM 28.8167 -81.4000 270° West 130 150 4,100  Level Orlando TRACON
Wed 12:47:26 PM 28.8167 -81.4333 270° West 135 155 4,100  Level Orlando TRACON
Wed 12:48:32 PM 28.8167 -81.4833 270° West 132 152 4,100 -50 Level Orlando TRACON
Wed 12:49:26 PM 28.8167 -81.5167 270° West 134 154 4,000 -34 Descending Orlando TRACON
Wed 12:51:26 PM 28.8383 -81.5983 287° West 135 155 4,000  Level Jacksonville Center
Wed 12:52:33 PM 28.8597 -81.6383 301° West 133 153 4,000 -55 Level Jacksonville Center
Wed 12:53:16 PM 28.8725 -81.6667 297° West 137 158 3,900 -47 Descending Jacksonville Center
Wed 12:54:41 PM 28.9042 -81.7161 306° West 139 160 3,900 41 Level Jacksonville Center
Wed 12:55:42 PM 28.9275 -81.7514 307° West 133 153 4,000  Climbing Jacksonville Center
Wed 12:56:31 PM 28.9383 -81.7869 289° West 137 158 3,900 -55 Descending Jacksonville Center
Wed 12:57:32 PM 28.9572 -81.8272 298° West 139 160 3,900 98 Level Jacksonville Center
Wed 12:58:33 PM 28.9703 -81.8672 290° West 133 153 4,100  Climbing Jacksonville Center
Wed 12:59:34 PM 28.9831 -81.9028 292° West 129 148 3,900 -49 Descending Jacksonville Center
Wed 01:00:35 PM 28.9978 -81.9383 295° West 111 128 4,000 49 Climbing Jacksonville Center
Wed 01:01:36 PM 29.0128 -81.9714 297° West 122 140 4,000  Level Jacksonville Center
Wed 01:02:37 PM 29.0275 -82.0067 296° West 114 131 4,000 -148 Level Jacksonville Center
Wed 01:03:38 PM 29.0153 -82.0331 242° Southwest 108 124 3,700 -537 Descending Jacksonville Center
Wed 01:04:51 PM 28.9883 -82.0547 215° Southwest 102 117 2,800 -761 Descending Jacksonville Center
Wed 01:05:52 PM 28.9739 -82.0928 247° West 120 138 2,000 -375 Descending Jacksonville Center
Wed 01:06:59 PM 28.9594 -82.1261 244° Southwest 107 123 2,000  Level Jacksonville Center
Wed 01:08:01 PM 28.9492 -82.1594 251° West 118 136 2,000  Level Jacksonville Center
Wed 01:09:02 PM 28.9411 -82.1997 257° West 117 135 2,000 -55 Level Jacksonville Center
Wed 01:09:51 PM 28.9392 -82.2258 265° West 109 125 1,900 -175 Descending Jacksonville Center
Wed 01:10:45 PM 28.9664 -82.2258 360° North 121 139 1,700 -90 Descending Jacksonville Center
Wed 01:12:05 PM 29.0081 -82.2256 360° North 117 135 1,700 44 Level Jacksonville Center
Wed 01:13:00 PM 29.0353 -82.2253 North 111 128 1,800  Climbing Jacksonville Center
Wed 01:14:07 PM 29.0728 -82.2250 360° North 115 132 1,700 -295 Descending Jacksonville Center
Wed 01:15:02 PM 29.0978 -82.2247 North 104 120 1,200 -466 Descending Jacksonville Center
Wed 01:16:03 PM 29.1292 -82.2247 360° North 100 115 800 -179 Descending Jacksonville Center
Wed 01:18:23 PM 29.1897 -82.2242 360° North 95 109 600 174 Descending Jacksonville Center
Wed 01:19:30 PM 29.1789 -82.1886 109° East 112 129 1,400 703 Climbing Jacksonville Center
Wed 01:20:31 PM 29.1642 -82.1600 121° Southeast 102 117 2,100 362 Climbing Jacksonville Center
Wed 01:21:26 PM 29.1472 -82.1294 122° Southeast 127 146 2,100 310 Level Jacksonville Center
Wed 01:22:27 PM 29.1283 -82.0986 125° Southeast 123 142 2,700 689 Climbing Jacksonville Center
Wed 01:23:28 PM 29.1114 -82.0750 129° Southeast 96 110 3,500 629 Climbing Jacksonville Center
Wed 01:25:57 PM 29.0667 -82.0167 131° Southeast 111 128 4,900 473 Climbing Orlando TRACON
Wed 01:26:51 PM 29.0333 -81.9833 139° Southeast 118 136 5,100 52 Climbing Orlando TRACON
Wed 01:27:52 PM 29.0167 -81.9500 120° Southeast 139 160 5,000 -47 Descending Orlando TRACON
Wed 01:28:58 PM 28.9833 -81.9167 139° Southeast 135 155 5,000 -46 Level Orlando TRACON
Wed 01:30:03 PM 28.9500 -81.8833 139° Southeast 137 158 4,900 -53 Descending Orlando TRACON
Wed 01:30:52 PM 28.9333 -81.8667 139° Southeast 137 158 4,900  Level Orlando TRACON
Wed 01:31:52 PM 28.9000 -81.8333 139° Southeast 137 158 4,900  Level Orlando TRACON
Wed 01:32:58 PM 28.8833 -81.8000 120° Southeast 137 158 4,900  Level Orlando TRACON
Wed 01:33:58 PM 28.8500 -81.7667 139° Southeast 138 159 4,900 52 Level Orlando TRACON
Wed 01:34:53 PM 28.8333 -81.7333 120° Southeast 136 157 5,000  Climbing Orlando TRACON
Wed 01:35:53 PM 28.8000 -81.7000 139° Southeast 136 157 4,900 -400 Descending Orlando TRACON
Wed 01:36:53 PM 28.7833 -81.6667 120° Southeast 141 162 4,200 -850 Descending Orlando TRACON
Wed 01:37:53 PM 28.7500 -81.6333 139° Southeast 138 159 3,200 -600 Descending Orlando TRACON
Wed 01:38:53 PM 28.7500 -81.6000 90° East 124 143 3,000 -45 Descending Orlando TRACON
Wed 01:40:05 PM 28.7833 -81.6333 319° Northwest 128 147 3,100 50 Climbing Orlando TRACON
Wed 01:40:54 PM 28.7833 -81.6667 270° West 135 155 3,100 -55 Level Orlando TRACON
Wed 01:41:54 PM 28.7667 -81.6500 139° Southeast 128 147 3,000  Descending Orlando TRACON
Wed 01:43:00 PM 28.7500 -81.6167 120° Southeast 125 144 3,100 48 Climbing Orlando TRACON
Wed 01:44:00 PM 28.7833 -81.6333 336° Northwest 136 157 3,100 -50 Level Orlando TRACON
Wed 01:45:00 PM 28.8000 -81.6667 300° West 126 145 3,000 -104 Descending Orlando TRACON
Wed 01:45:55 PM 28.7833 -81.6500 139° Southeast 108 124 2,900 52 Descending Orlando TRACON
Wed 01:46:55 PM 28.7667 -81.6333 139° Southeast 107 123 3,100 50 Climbing Orlando TRACON
Wed 01:47:55 PM 28.7500 -81.6000 120° Southeast 123 142 3,000 -238 Descending Orlando TRACON
Wed 01:49:01 PM 28.7333 -81.5667 120° Southeast 119 137 2,600 -476 Descending Orlando TRACON
Wed 01:50:01 PM 28.7000 -81.5167 127° Southeast 135 155 2,000 -298 Descending Orlando TRACON
Wed 01:51:02 PM 28.6833 -81.5000 139° Southeast 104 120 2,000  Level Orlando TRACON
Wed 01:52:02 PM 28.6667 -81.4667 120° Southeast 121 139 2,000 95 Level Orlando TRACON
Wed 01:53:08 PM 28.7000 -81.4500 24° Northeast 117 135 2,200 53 Climbing Orlando TRACON
Wed 01:53:56 PM 28.7167 -81.4500 360° North 120 138 2,100 -158 Descending Orlando TRACON
Wed 01:55:02 PM 28.7500 -81.4667 336° Northwest 116 133 1,900 -95 Descending Orlando TRACON
Wed 01:56:02 PM 28.7833 -81.4500 24° Northeast 112 129 1,900 -143 Level Orlando TRACON
Wed 01:57:08 PM 28.7833 -81.4000 90° East 107 123 1,600 -99 Descending Orlando TRACON
Wed 01:58:03 PM 28.7833 -81.3667 90° East 112 129 1,700 -52 Climbing Orlando TRACON
Wed 01:59:03 PM 28.7833 -81.3333 90° East 106 122 1,500 -450 Descending Orlando TRACON
Wed 02:00:03 PM 28.7833 -81.3000 90° East 105 121 800 -700 Descending Orlando TRACON

Login

Don't have an account? Register now (free) for customized features, flight alerts, and more!